sensor_id;sensor_type;location;lat;lon;timestamp;P1;durP1;ratioP1;P2;durP2;ratioP2
48871;SDS011;36154;51.674;7.824;2024-01-30T00:02:12;1.90;;;1.80;;
48871;SDS011;36154;51.674;7.824;2024-01-30T00:04:37;1.80;;;1.70;;
48871;SDS011;36154;51.674;7.824;2024-01-30T00:07:03;2.33;;;2.22;;
48871;SDS011;36154;51.674;7.824;2024-01-30T00:09:28;2.35;;;2.25;;
48871;SDS011;36154;51.674;7.824;2024-01-30T00:11:54;2.30;;;2.20;;
48871;SDS011;36154;51.674;7.824;2024-01-30T00:14:19;2.10;;;2.00;;
48871;SDS011;36154;51.674;7.824;2024-01-30T00:16:44;2.30;;;2.20;;
48871;SDS011;36154;51.674;7.824;2024-01-30T00:19:10;1.92;;;1.83;;
48871;SDS011;36154;51.674;7.824;2024-01-30T00:21:35;2.13;;;1.92;;
48871;SDS011;36154;51.674;7.824;2024-01-30T00:24:00;2.40;;;2.30;;
48871;SDS011;36154;51.674;7.824;2024-01-30T00:26:26;2.50;;;2.30;;
48871;SDS011;36154;51.674;7.824;2024-01-30T00:28:51;1.80;;;1.70;;
48871;SDS011;36154;51.674;7.824;2024-01-30T00:31:16;1.77;;;1.67;;
48871;SDS011;36154;51.674;7.824;2024-01-30T00:33:42;2.20;;;2.10;;
48871;SDS011;36154;51.674;7.824;2024-01-30T00:36:07;2.28;;;2.17;;
48871;SDS011;36154;51.674;7.824;2024-01-30T00:38:34;1.83;;;1.73;;
48871;SDS011;36154;51.674;7.824;2024-01-30T00:41:00;1.92;;;1.83;;
48871;SDS011;36154;51.674;7.824;2024-01-30T00:43:26;1.88;;;1.77;;
48871;SDS011;36154;51.674;7.824;2024-01-30T00:45:52;2.20;;;2.10;;
48871;SDS011;36154;51.674;7.824;2024-01-30T00:48:17;2.00;;;1.90;;
48871;SDS011;36154;51.674;7.824;2024-01-30T00:50:43;1.60;;;1.50;;
48871;SDS011;36154;51.674;7.824;2024-01-30T00:53:08;2.05;;;1.95;;
48871;SDS011;36154;51.674;7.824;2024-01-30T00:55:33;2.00;;;1.90;;
48871;SDS011;36154;51.674;7.824;2024-01-30T00:57:59;1.60;;;1.50;;
48871;SDS011;36154;51.674;7.824;2024-01-30T01:00:24;1.85;;;1.75;;
48871;SDS011;36154;51.674;7.824;2024-01-30T01:02:53;2.05;;;1.95;;
48871;SDS011;36154;51.674;7.824;2024-01-30T01:05:19;1.85;;;1.75;;
48871;SDS011;36154;51.674;7.824;2024-01-30T01:07:44;1.40;;;1.40;;
48871;SDS011;36154;51.674;7.824;2024-01-30T01:10:12;1.40;;;1.40;;
48871;SDS011;36154;51.674;7.824;2024-01-30T01:12:38;1.52;;;1.42;;
48871;SDS011;36154;51.674;7.824;2024-01-30T01:15:04;1.77;;;1.67;;
48871;SDS011;36154;51.674;7.824;2024-01-30T01:17:29;1.73;;;1.63;;
48871;SDS011;36154;51.674;7.824;2024-01-30T01:19:55;1.88;;;1.77;;
48871;SDS011;36154;51.674;7.824;2024-01-30T01:22:20;1.77;;;1.67;;
48871;SDS011;36154;51.674;7.824;2024-01-30T01:24:45;2.00;;;1.90;;
48871;SDS011;36154;51.674;7.824;2024-01-30T01:27:11;1.83;;;1.73;;
48871;SDS011;36154;51.674;7.824;2024-01-30T01:29:36;1.70;;;1.60;;
48871;SDS011;36154;51.674;7.824;2024-01-30T01:32:01;1.55;;;1.45;;
48871;SDS011;36154;51.674;7.824;2024-01-30T01:34:27;1.17;;;1.17;;
48871;SDS011;36154;51.674;7.824;2024-01-30T01:36:52;1.27;;;1.27;;
48871;SDS011;36154;51.674;7.824;2024-01-30T01:39:20;1.55;;;1.45;;
48871;SDS011;36154;51.674;7.824;2024-01-30T01:41:45;1.73;;;1.33;;
48871;SDS011;36154;51.674;7.824;2024-01-30T01:44:11;1.33;;;1.33;;
48871;SDS011;36154;51.674;7.824;2024-01-30T01:46:36;1.50;;;1.40;;
48871;SDS011;36154;51.674;7.824;2024-01-30T01:49:02;1.63;;;1.52;;
48871;SDS011;36154;51.674;7.824;2024-01-30T01:51:30;1.42;;;1.40;;
48871;SDS011;36154;51.674;7.824;2024-01-30T01:53:58;1.27;;;1.20;;
48871;SDS011;36154;51.674;7.824;2024-01-30T01:56:27;1.40;;;1.40;;
48871;SDS011;36154;51.674;7.824;2024-01-30T01:58:54;1.30;;;1.30;;
48871;SDS011;36154;51.674;7.824;2024-01-30T02:01:24;1.20;;;1.20;;
48871;SDS011;36154;51.674;7.824;2024-01-30T02:03:50;1.50;;;1.40;;
48871;SDS011;36154;51.674;7.824;2024-01-30T02:06:15;1.10;;;1.10;;
48871;SDS011;36154;51.674;7.824;2024-01-30T02:08:41;1.30;;;1.20;;
48871;SDS011;36154;51.674;7.824;2024-01-30T02:11:07;1.30;;;1.23;;
48871;SDS011;36154;51.674;7.824;2024-01-30T02:13:33;1.20;;;1.20;;
48871;SDS011;36154;51.674;7.824;2024-01-30T02:15:59;1.02;;;1.02;;
48871;SDS011;36154;51.674;7.824;2024-01-30T02:18:24;1.08;;;1.08;;
48871;SDS011;36154;51.674;7.824;2024-01-30T02:20:50;1.30;;;1.00;;
48871;SDS011;36154;51.674;7.824;2024-01-30T02:23:19;0.95;;;0.95;;
48871;SDS011;36154;51.674;7.824;2024-01-30T02:25:45;1.00;;;1.00;;
48871;SDS011;36154;51.674;7.824;2024-01-30T02:28:13;1.08;;;1.08;;
48871;SDS011;36154;51.674;7.824;2024-01-30T02:30:45;1.17;;;1.17;;
48871;SDS011;36154;51.674;7.824;2024-01-30T02:33:11;1.10;;;1.10;;
48871;SDS011;36154;51.674;7.824;2024-01-30T02:35:36;1.13;;;1.10;;
48871;SDS011;36154;51.674;7.824;2024-01-30T02:38:02;0.93;;;0.93;;
48871;SDS011;36154;51.674;7.824;2024-01-30T02:40:27;1.17;;;1.10;;
48871;SDS011;36154;51.674;7.824;2024-01-30T02:42:52;1.13;;;1.13;;
48871;SDS011;36154;51.674;7.824;2024-01-30T02:45:18;1.10;;;1.10;;
48871;SDS011;36154;51.674;7.824;2024-01-30T02:47:43;1.05;;;1.05;;
48871;SDS011;36154;51.674;7.824;2024-01-30T02:50:08;1.00;;;1.00;;
48871;SDS011;36154;51.674;7.824;2024-01-30T02:52:34;1.10;;;1.10;;
48871;SDS011;36154;51.674;7.824;2024-01-30T02:55:00;1.10;;;1.10;;
48871;SDS011;36154;51.674;7.824;2024-01-30T02:57:25;1.08;;;1.08;;
48871;SDS011;36154;51.674;7.824;2024-01-30T02:59:51;1.10;;;1.10;;
48871;SDS011;36154;51.674;7.824;2024-01-30T03:02:16;0.90;;;0.90;;
48871;SDS011;36154;51.674;7.824;2024-01-30T03:04:41;1.02;;;1.02;;
48871;SDS011;36154;51.674;7.824;2024-01-30T03:07:07;1.10;;;1.10;;
48871;SDS011;36154;51.674;7.824;2024-01-30T03:09:32;1.88;;;0.80;;
48871;SDS011;36154;51.674;7.824;2024-01-30T03:11:58;0.95;;;0.95;;
48871;SDS011;36154;51.674;7.824;2024-01-30T03:14:23;0.90;;;0.90;;
48871;SDS011;36154;51.674;7.824;2024-01-30T03:16:48;0.88;;;0.88;;
48871;SDS011;36154;51.674;7.824;2024-01-30T03:19:14;0.80;;;0.80;;
48871;SDS011;36154;51.674;7.824;2024-01-30T03:21:39;0.80;;;0.80;;
48871;SDS011;36154;51.674;7.824;2024-01-30T03:24:04;1.00;;;1.00;;
48871;SDS011;36154;51.674;7.824;2024-01-30T03:26:30;0.60;;;0.60;;
48871;SDS011;36154;51.674;7.824;2024-01-30T03:28:55;1.08;;;1.08;;
48871;SDS011;36154;51.674;7.824;2024-01-30T03:31:21;0.63;;;0.63;;
48871;SDS011;36154;51.674;7.824;2024-01-30T03:33:46;0.70;;;0.70;;
48871;SDS011;36154;51.674;7.824;2024-01-30T03:36:11;0.70;;;0.70;;
48871;SDS011;36154;51.674;7.824;2024-01-30T03:38:36;1.15;;;1.05;;
48871;SDS011;36154;51.674;7.824;2024-01-30T03:41:02;0.68;;;0.68;;
48871;SDS011;36154;51.674;7.824;2024-01-30T03:43:27;0.82;;;0.82;;
48871;SDS011;36154;51.674;7.824;2024-01-30T03:45:53;0.70;;;0.70;;
48871;SDS011;36154;51.674;7.824;2024-01-30T03:48:18;0.80;;;0.80;;
48871;SDS011;36154;51.674;7.824;2024-01-30T03:50:45;0.80;;;0.80;;
48871;SDS011;36154;51.674;7.824;2024-01-30T03:53:10;0.98;;;0.98;;
48871;SDS011;36154;51.674;7.824;2024-01-30T03:55:35;0.90;;;0.90;;
48871;SDS011;36154;51.674;7.824;2024-01-30T03:58:01;0.73;;;0.73;;
48871;SDS011;36154;51.674;7.824;2024-01-30T04:00:26;0.70;;;0.70;;
48871;SDS011;36154;51.674;7.824;2024-01-30T04:02:51;0.80;;;0.80;;
48871;SDS011;36154;51.674;7.824;2024-01-30T04:05:16;0.60;;;0.60;;
48871;SDS011;36154;51.674;7.824;2024-01-30T04:07:42;0.77;;;0.77;;
48871;SDS011;36154;51.674;7.824;2024-01-30T04:10:07;0.50;;;0.50;;
48871;SDS011;36154;51.674;7.824;2024-01-30T04:12:33;0.70;;;0.70;;
48871;SDS011;36154;51.674;7.824;2024-01-30T04:14:58;0.65;;;0.65;;
48871;SDS011;36154;51.674;7.824;2024-01-30T04:17:23;0.60;;;0.60;;
48871;SDS011;36154;51.674;7.824;2024-01-30T04:19:49;0.60;;;0.60;;
48871;SDS011;36154;51.674;7.824;2024-01-30T04:22:14;0.50;;;0.50;;
48871;SDS011;36154;51.674;7.824;2024-01-30T04:24:39;0.80;;;0.80;;
48871;SDS011;36154;51.674;7.824;2024-01-30T04:27:04;0.60;;;0.60;;
48871;SDS011;36154;51.674;7.824;2024-01-30T04:29:30;0.80;;;0.80;;
48871;SDS011;36154;51.674;7.824;2024-01-30T04:31:55;0.68;;;0.68;;
48871;SDS011;36154;51.674;7.824;2024-01-30T04:34:20;0.75;;;0.75;;
48871;SDS011;36154;51.674;7.824;2024-01-30T04:36:45;0.70;;;0.70;;
48871;SDS011;36154;51.674;7.824;2024-01-30T04:39:11;0.73;;;0.73;;
48871;SDS011;36154;51.674;7.824;2024-01-30T04:41:37;0.60;;;0.60;;
48871;SDS011;36154;51.674;7.824;2024-01-30T04:44:03;0.60;;;0.60;;
48871;SDS011;36154;51.674;7.824;2024-01-30T04:46:28;0.60;;;0.60;;
48871;SDS011;36154;51.674;7.824;2024-01-30T04:48:53;0.70;;;0.60;;
48871;SDS011;36154;51.674;7.824;2024-01-30T04:51:19;0.50;;;0.50;;
48871;SDS011;36154;51.674;7.824;2024-01-30T04:53:44;0.80;;;0.80;;
48871;SDS011;36154;51.674;7.824;2024-01-30T04:56:09;0.80;;;0.80;;
48871;SDS011;36154;51.674;7.824;2024-01-30T04:58:35;0.60;;;0.60;;
48871;SDS011;36154;51.674;7.824;2024-01-30T05:01:00;0.60;;;0.60;;
48871;SDS011;36154;51.674;7.824;2024-01-30T05:03:27;1.85;;;0.73;;
48871;SDS011;36154;51.674;7.824;2024-01-30T05:05:52;0.60;;;0.60;;
48871;SDS011;36154;51.674;7.824;2024-01-30T05:08:17;0.52;;;0.52;;
48871;SDS011;36154;51.674;7.824;2024-01-30T05:10:43;0.60;;;0.60;;
48871;SDS011;36154;51.674;7.824;2024-01-30T05:13:08;0.63;;;0.63;;
48871;SDS011;36154;51.674;7.824;2024-01-30T05:15:33;0.60;;;0.60;;
48871;SDS011;36154;51.674;7.824;2024-01-30T05:17:58;0.80;;;0.80;;
48871;SDS011;36154;51.674;7.824;2024-01-30T05:20:24;0.40;;;0.40;;
48871;SDS011;36154;51.674;7.824;2024-01-30T05:22:52;0.68;;;0.68;;
48871;SDS011;36154;51.674;7.824;2024-01-30T05:25:18;0.63;;;0.63;;
48871;SDS011;36154;51.674;7.824;2024-01-30T05:27:43;0.70;;;0.70;;
48871;SDS011;36154;51.674;7.824;2024-01-30T05:30:09;0.50;;;0.50;;
48871;SDS011;36154;51.674;7.824;2024-01-30T05:32:35;1.38;;;0.63;;
48871;SDS011;36154;51.674;7.824;2024-01-30T05:35:00;0.60;;;0.60;;
48871;SDS011;36154;51.674;7.824;2024-01-30T05:37:25;0.40;;;0.40;;
48871;SDS011;36154;51.674;7.824;2024-01-30T05:39:50;0.70;;;0.70;;
48871;SDS011;36154;51.674;7.824;2024-01-30T05:42:16;0.60;;;0.60;;
48871;SDS011;36154;51.674;7.824;2024-01-30T05:44:42;0.68;;;0.68;;
48871;SDS011;36154;51.674;7.824;2024-01-30T05:47:07;0.68;;;0.68;;
48871;SDS011;36154;51.674;7.824;2024-01-30T05:49:32;0.50;;;0.50;;
48871;SDS011;36154;51.674;7.824;2024-01-30T05:51:57;0.60;;;0.60;;
48871;SDS011;36154;51.674;7.824;2024-01-30T05:54:23;0.57;;;0.57;;
48871;SDS011;36154;51.674;7.824;2024-01-30T05:56:48;0.47;;;0.40;;
48871;SDS011;36154;51.674;7.824;2024-01-30T05:59:13;0.57;;;0.57;;
48871;SDS011;36154;51.674;7.824;2024-01-30T06:01:44;0.60;;;0.60;;
48871;SDS011;36154;51.674;7.824;2024-01-30T06:04:10;0.60;;;0.60;;
48871;SDS011;36154;51.674;7.824;2024-01-30T06:06:36;0.60;;;0.60;;
48871;SDS011;36154;51.674;7.824;2024-01-30T06:09:01;0.65;;;0.65;;
48871;SDS011;36154;51.674;7.824;2024-01-30T06:11:26;0.75;;;0.75;;
48871;SDS011;36154;51.674;7.824;2024-01-30T06:13:51;0.65;;;0.65;;
48871;SDS011;36154;51.674;7.824;2024-01-30T06:16:17;0.73;;;0.73;;
48871;SDS011;36154;51.674;7.824;2024-01-30T06:18:42;0.47;;;0.47;;
48871;SDS011;36154;51.674;7.824;2024-01-30T06:21:07;0.68;;;0.50;;
48871;SDS011;36154;51.674;7.824;2024-01-30T06:23:33;0.50;;;0.50;;
48871;SDS011;36154;51.674;7.824;2024-01-30T06:25:58;0.55;;;0.55;;
48871;SDS011;36154;51.674;7.824;2024-01-30T06:28:23;0.68;;;0.68;;
48871;SDS011;36154;51.674;7.824;2024-01-30T06:30:49;0.60;;;0.60;;
48871;SDS011;36154;51.674;7.824;2024-01-30T06:33:14;0.80;;;0.80;;
48871;SDS011;36154;51.674;7.824;2024-01-30T06:35:40;0.60;;;0.60;;
48871;SDS011;36154;51.674;7.824;2024-01-30T06:38:05;0.90;;;0.90;;
48871;SDS011;36154;51.674;7.824;2024-01-30T06:40:31;0.60;;;0.60;;
48871;SDS011;36154;51.674;7.824;2024-01-30T06:42:56;0.60;;;0.60;;
48871;SDS011;36154;51.674;7.824;2024-01-30T06:45:22;0.90;;;0.90;;
48871;SDS011;36154;51.674;7.824;2024-01-30T06:47:47;1.60;;;0.95;;
48871;SDS011;36154;51.674;7.824;2024-01-30T06:50:12;0.93;;;0.68;;
48871;SDS011;36154;51.674;7.824;2024-01-30T06:52:38;1.38;;;0.65;;
48871;SDS011;36154;51.674;7.824;2024-01-30T06:55:03;1.08;;;0.75;;
48871;SDS011;36154;51.674;7.824;2024-01-30T06:57:28;2.92;;;0.80;;
48871;SDS011;36154;51.674;7.824;2024-01-30T06:59:55;0.73;;;0.73;;
48871;SDS011;36154;51.674;7.824;2024-01-30T07:02:20;0.88;;;0.82;;
48871;SDS011;36154;51.674;7.824;2024-01-30T07:04:46;1.85;;;0.70;;
48871;SDS011;36154;51.674;7.824;2024-01-30T07:07:12;0.68;;;0.68;;
48871;SDS011;36154;51.674;7.824;2024-01-30T07:09:38;0.70;;;0.70;;
48871;SDS011;36154;51.674;7.824;2024-01-30T07:12:04;0.80;;;0.80;;
48871;SDS011;36154;51.674;7.824;2024-01-30T07:14:29;0.60;;;0.60;;
48871;SDS011;36154;51.674;7.824;2024-01-30T07:16:54;0.60;;;0.60;;
48871;SDS011;36154;51.674;7.824;2024-01-30T07:19:20;0.70;;;0.70;;
48871;SDS011;36154;51.674;7.824;2024-01-30T07:21:45;0.55;;;0.55;;
48871;SDS011;36154;51.674;7.824;2024-01-30T07:24:11;0.75;;;0.70;;
48871;SDS011;36154;51.674;7.824;2024-01-30T07:26:36;0.60;;;0.60;;
48871;SDS011;36154;51.674;7.824;2024-01-30T07:29:01;0.70;;;0.70;;
48871;SDS011;36154;51.674;7.824;2024-01-30T07:31:27;0.70;;;0.70;;
48871;SDS011;36154;51.674;7.824;2024-01-30T07:33:52;0.75;;;0.75;;
48871;SDS011;36154;51.674;7.824;2024-01-30T07:36:18;0.52;;;0.52;;
48871;SDS011;36154;51.674;7.824;2024-01-30T07:38:43;0.77;;;0.77;;
48871;SDS011;36154;51.674;7.824;2024-01-30T07:41:08;0.70;;;0.70;;
48871;SDS011;36154;51.674;7.824;2024-01-30T07:43:34;0.60;;;0.60;;
48871;SDS011;36154;51.674;7.824;2024-01-30T07:45:59;0.52;;;0.50;;
48871;SDS011;36154;51.674;7.824;2024-01-30T07:48:25;1.45;;;0.50;;
48871;SDS011;36154;51.674;7.824;2024-01-30T07:50:51;0.50;;;0.50;;
48871;SDS011;36154;51.674;7.824;2024-01-30T07:53:16;0.93;;;0.52;;
48871;SDS011;36154;51.674;7.824;2024-01-30T07:55:41;0.88;;;0.50;;
48871;SDS011;36154;51.674;7.824;2024-01-30T07:58:09;0.75;;;0.57;;
48871;SDS011;36154;51.674;7.824;2024-01-30T08:00:35;1.83;;;0.52;;
48871;SDS011;36154;51.674;7.824;2024-01-30T08:03:00;1.60;;;0.70;;
48871;SDS011;36154;51.674;7.824;2024-01-30T08:05:25;0.60;;;0.60;;
48871;SDS011;36154;51.674;7.824;2024-01-30T08:07:51;0.55;;;0.50;;
48871;SDS011;36154;51.674;7.824;2024-01-30T08:10:16;0.40;;;0.40;;
48871;SDS011;36154;51.674;7.824;2024-01-30T08:12:43;1.38;;;0.50;;
48871;SDS011;36154;51.674;7.824;2024-01-30T08:15:09;0.68;;;0.60;;
48871;SDS011;36154;51.674;7.824;2024-01-30T08:17:35;0.52;;;0.52;;
48871;SDS011;36154;51.674;7.824;2024-01-30T08:20:01;0.60;;;0.60;;
48871;SDS011;36154;51.674;7.824;2024-01-30T08:22:28;0.57;;;0.57;;
48871;SDS011;36154;51.674;7.824;2024-01-30T08:24:53;0.60;;;0.50;;
48871;SDS011;36154;51.674;7.824;2024-01-30T08:27:19;0.55;;;0.55;;
48871;SDS011;36154;51.674;7.824;2024-01-30T08:29:44;1.40;;;0.60;;
48871;SDS011;36154;51.674;7.824;2024-01-30T08:32:09;0.70;;;0.70;;
48871;SDS011;36154;51.674;7.824;2024-01-30T08:34:35;0.60;;;0.60;;
48871;SDS011;36154;51.674;7.824;2024-01-30T08:37:00;0.55;;;0.55;;
48871;SDS011;36154;51.674;7.824;2024-01-30T08:39:28;1.00;;;0.63;;
48871;SDS011;36154;51.674;7.824;2024-01-30T08:41:53;0.70;;;0.50;;
48871;SDS011;36154;51.674;7.824;2024-01-30T08:44:18;0.65;;;0.57;;
48871;SDS011;36154;51.674;7.824;2024-01-30T08:46:44;0.80;;;0.77;;
48871;SDS011;36154;51.674;7.824;2024-01-30T08:49:10;0.68;;;0.68;;
48871;SDS011;36154;51.674;7.824;2024-01-30T08:51:38;1.48;;;0.80;;
48871;SDS011;36154;51.674;7.824;2024-01-30T08:54:03;0.98;;;0.80;;
48871;SDS011;36154;51.674;7.824;2024-01-30T08:56:28;1.98;;;0.88;;
48871;SDS011;36154;51.674;7.824;2024-01-30T08:58:54;0.70;;;0.70;;
48871;SDS011;36154;51.674;7.824;2024-01-30T09:01:19;0.70;;;0.70;;
48871;SDS011;36154;51.674;7.824;2024-01-30T09:03:44;1.70;;;0.88;;
48871;SDS011;36154;51.674;7.824;2024-01-30T09:06:11;2.55;;;0.98;;
48871;SDS011;36154;51.674;7.824;2024-01-30T09:08:38;0.75;;;0.75;;
48871;SDS011;36154;51.674;7.824;2024-01-30T09:11:10;1.25;;;0.60;;
48871;SDS011;36154;51.674;7.824;2024-01-30T09:13:36;1.50;;;0.88;;
48871;SDS011;36154;51.674;7.824;2024-01-30T09:16:02;1.95;;;0.85;;
48871;SDS011;36154;51.674;7.824;2024-01-30T09:18:28;1.45;;;1.15;;
48871;SDS011;36154;51.674;7.824;2024-01-30T09:20:53;0.85;;;0.85;;
48871;SDS011;36154;51.674;7.824;2024-01-30T09:23:18;0.80;;;0.80;;
48871;SDS011;36154;51.674;7.824;2024-01-30T09:25:44;0.90;;;0.70;;
48871;SDS011;36154;51.674;7.824;2024-01-30T09:28:10;1.17;;;0.90;;
48871;SDS011;36154;51.674;7.824;2024-01-30T09:30:35;1.45;;;0.80;;
48871;SDS011;36154;51.674;7.824;2024-01-30T09:33:00;1.00;;;1.00;;
48871;SDS011;36154;51.674;7.824;2024-01-30T09:35:26;2.05;;;0.73;;
48871;SDS011;36154;51.674;7.824;2024-01-30T09:37:51;0.77;;;0.70;;
48871;SDS011;36154;51.674;7.824;2024-01-30T09:40:17;0.70;;;0.70;;
48871;SDS011;36154;51.674;7.824;2024-01-30T09:42:44;0.70;;;0.70;;
48871;SDS011;36154;51.674;7.824;2024-01-30T09:45:15;14.30;;;3.28;;
48871;SDS011;36154;51.674;7.824;2024-01-30T09:47:42;12.25;;;3.92;;
48871;SDS011;36154;51.674;7.824;2024-01-30T09:50:09;18.98;;;4.10;;
48871;SDS011;36154;51.674;7.824;2024-01-30T09:52:36;17.88;;;4.70;;
48871;SDS011;36154;51.674;7.824;2024-01-30T09:55:02;19.88;;;5.32;;
48871;SDS011;36154;51.674;7.824;2024-01-30T09:57:28;24.83;;;5.57;;
48871;SDS011;36154;51.674;7.824;2024-01-30T09:59:53;23.05;;;5.95;;
48871;SDS011;36154;51.674;7.824;2024-01-30T10:02:21;22.25;;;5.88;;
48871;SDS011;36154;51.674;7.824;2024-01-30T10:04:47;22.10;;;5.22;;
48871;SDS011;36154;51.674;7.824;2024-01-30T10:07:13;15.52;;;4.28;;
48871;SDS011;36154;51.674;7.824;2024-01-30T10:09:39;13.18;;;4.07;;
48871;SDS011;36154;51.674;7.824;2024-01-30T10:12:05;15.10;;;3.90;;
48871;SDS011;36154;51.674;7.824;2024-01-30T10:14:30;13.25;;;3.53;;
48871;SDS011;36154;51.674;7.824;2024-01-30T10:16:57;8.25;;;2.72;;
48871;SDS011;36154;51.674;7.824;2024-01-30T10:19:22;8.05;;;2.65;;
48871;SDS011;36154;51.674;7.824;2024-01-30T10:21:48;6.32;;;2.50;;
48871;SDS011;36154;51.674;7.824;2024-01-30T10:24:13;6.72;;;2.10;;
48871;SDS011;36154;51.674;7.824;2024-01-30T10:26:39;6.63;;;2.10;;
48871;SDS011;36154;51.674;7.824;2024-01-30T10:29:04;3.28;;;1.70;;
48871;SDS011;36154;51.674;7.824;2024-01-30T10:31:30;3.72;;;1.55;;
48871;SDS011;36154;51.674;7.824;2024-01-30T10:33:55;5.68;;;1.95;;
48871;SDS011;36154;51.674;7.824;2024-01-30T10:36:21;5.20;;;1.98;;
48871;SDS011;36154;51.674;7.824;2024-01-30T10:38:53;2.83;;;1.60;;
48871;SDS011;36154;51.674;7.824;2024-01-30T10:41:26;7.00;;;2.30;;
48871;SDS011;36154;51.674;7.824;2024-01-30T10:44:01;4.72;;;1.90;;
48871;SDS011;36154;51.674;7.824;2024-01-30T10:46:33;5.65;;;1.85;;
48871;SDS011;36154;51.674;7.824;2024-01-30T10:49:00;4.18;;;1.92;;
48871;SDS011;36154;51.674;7.824;2024-01-30T10:51:26;4.45;;;2.00;;
48871;SDS011;36154;51.674;7.824;2024-01-30T10:53:52;5.30;;;2.00;;
48871;SDS011;36154;51.674;7.824;2024-01-30T10:56:20;3.78;;;1.65;;
48871;SDS011;36154;51.674;7.824;2024-01-30T10:58:47;5.38;;;3.20;;
48871;SDS011;36154;51.674;7.824;2024-01-30T11:01:17;3.75;;;3.35;;
48871;SDS011;36154;51.674;7.824;2024-01-30T11:03:48;4.65;;;3.35;;
48871;SDS011;36154;51.674;7.824;2024-01-30T11:06:17;3.45;;;3.15;;
48871;SDS011;36154;51.674;7.824;2024-01-30T11:08:45;5.40;;;3.90;;
48871;SDS011;36154;51.674;7.824;2024-01-30T11:11:10;4.30;;;3.28;;
48871;SDS011;36154;51.674;7.824;2024-01-30T11:13:36;10.38;;;4.03;;
48871;SDS011;36154;51.674;7.824;2024-01-30T11:16:02;4.75;;;3.55;;
48871;SDS011;36154;51.674;7.824;2024-01-30T11:18:29;5.57;;;4.47;;
48871;SDS011;36154;51.674;7.824;2024-01-30T11:20:55;9.43;;;4.25;;
48871;SDS011;36154;51.674;7.824;2024-01-30T11:23:22;8.32;;;4.20;;
48871;SDS011;36154;51.674;7.824;2024-01-30T11:25:47;7.05;;;3.72;;
48871;SDS011;36154;51.674;7.824;2024-01-30T11:28:14;3.75;;;3.10;;
48871;SDS011;36154;51.674;7.824;2024-01-30T11:30:43;5.03;;;2.97;;
48871;SDS011;36154;51.674;7.824;2024-01-30T11:33:10;4.43;;;2.67;;
48871;SDS011;36154;51.674;7.824;2024-01-30T11:35:42;2.80;;;2.50;;
48871;SDS011;36154;51.674;7.824;2024-01-30T11:38:10;2.40;;;2.20;;
48871;SDS011;36154;51.674;7.824;2024-01-30T11:40:36;2.78;;;2.55;;
48871;SDS011;36154;51.674;7.824;2024-01-30T11:43:03;2.33;;;2.15;;
48871;SDS011;36154;51.674;7.824;2024-01-30T11:45:30;5.13;;;2.30;;
48871;SDS011;36154;51.674;7.824;2024-01-30T11:47:56;4.70;;;2.47;;
48871;SDS011;36154;51.674;7.824;2024-01-30T11:50:22;5.13;;;2.50;;
48871;SDS011;36154;51.674;7.824;2024-01-30T11:52:47;2.28;;;2.00;;
48871;SDS011;36154;51.674;7.824;2024-01-30T11:55:13;2.20;;;2.00;;
48871;SDS011;36154;51.674;7.824;2024-01-30T11:57:41;2.03;;;1.80;;
48871;SDS011;36154;51.674;7.824;2024-01-30T12:00:13;2.67;;;2.05;;
48871;SDS011;36154;51.674;7.824;2024-01-30T12:02:40;3.35;;;2.00;;
48871;SDS011;36154;51.674;7.824;2024-01-30T12:05:06;4.38;;;1.90;;
48871;SDS011;36154;51.674;7.824;2024-01-30T12:07:32;2.67;;;1.70;;
48871;SDS011;36154;51.674;7.824;2024-01-30T12:09:57;2.25;;;2.05;;
48871;SDS011;36154;51.674;7.824;2024-01-30T12:12:23;2.42;;;1.67;;
48871;SDS011;36154;51.674;7.824;2024-01-30T12:14:50;3.50;;;2.08;;
48871;SDS011;36154;51.674;7.824;2024-01-30T12:17:29;9.98;;;1.95;;
48871;SDS011;36154;51.674;7.824;2024-01-30T12:20:05;4.55;;;2.15;;
48871;SDS011;36154;51.674;7.824;2024-01-30T12:22:40;3.70;;;1.95;;
48871;SDS011;36154;51.674;7.824;2024-01-30T12:25:07;2.97;;;1.83;;
48871;SDS011;36154;51.674;7.824;2024-01-30T12:27:34;3.78;;;1.58;;
48871;SDS011;36154;51.674;7.824;2024-01-30T12:30:00;3.67;;;2.00;;
48871;SDS011;36154;51.674;7.824;2024-01-30T12:32:26;4.72;;;2.10;;
48871;SDS011;36154;51.674;7.824;2024-01-30T12:34:54;3.00;;;1.85;;
48871;SDS011;36154;51.674;7.824;2024-01-30T12:37:20;8.75;;;1.70;;
48871;SDS011;36154;51.674;7.824;2024-01-30T12:39:47;8.38;;;2.00;;
48871;SDS011;36154;51.674;7.824;2024-01-30T12:42:13;8.07;;;2.67;;
48871;SDS011;36154;51.674;7.824;2024-01-30T12:44:38;7.40;;;2.90;;
48871;SDS011;36154;51.674;7.824;2024-01-30T12:47:04;8.07;;;2.90;;
48871;SDS011;36154;51.674;7.824;2024-01-30T12:49:29;6.40;;;2.58;;
48871;SDS011;36154;51.674;7.824;2024-01-30T12:51:54;4.25;;;2.60;;
48871;SDS011;36154;51.674;7.824;2024-01-30T12:54:20;2.50;;;2.03;;
48871;SDS011;36154;51.674;7.824;2024-01-30T12:56:45;3.38;;;1.83;;
48871;SDS011;36154;51.674;7.824;2024-01-30T12:59:10;2.38;;;1.70;;
48871;SDS011;36154;51.674;7.824;2024-01-30T13:01:35;3.05;;;2.00;;
48871;SDS011;36154;51.674;7.824;2024-01-30T13:04:01;5.88;;;1.60;;
48871;SDS011;36154;51.674;7.824;2024-01-30T13:06:26;5.13;;;1.58;;
48871;SDS011;36154;51.674;7.824;2024-01-30T13:08:52;1.65;;;1.48;;
48871;SDS011;36154;51.674;7.824;2024-01-30T13:11:17;2.83;;;1.92;;
48871;SDS011;36154;51.674;7.824;2024-01-30T13:13:43;2.85;;;2.10;;
48871;SDS011;36154;51.674;7.824;2024-01-30T13:16:08;3.42;;;2.05;;
48871;SDS011;36154;51.674;7.824;2024-01-30T13:18:33;4.30;;;2.03;;
48871;SDS011;36154;51.674;7.824;2024-01-30T13:20:58;3.45;;;1.70;;
48871;SDS011;36154;51.674;7.824;2024-01-30T13:23:24;4.72;;;1.75;;
48871;SDS011;36154;51.674;7.824;2024-01-30T13:25:49;3.30;;;1.63;;
48871;SDS011;36154;51.674;7.824;2024-01-30T13:28:14;3.25;;;1.75;;
48871;SDS011;36154;51.674;7.824;2024-01-30T13:30:39;4.28;;;1.70;;
48871;SDS011;36154;51.674;7.824;2024-01-30T13:33:05;2.53;;;1.73;;
48871;SDS011;36154;51.674;7.824;2024-01-30T13:35:30;2.80;;;1.77;;
48871;SDS011;36154;51.674;7.824;2024-01-30T13:37:55;3.28;;;1.52;;
48871;SDS011;36154;51.674;7.824;2024-01-30T13:40:20;3.77;;;1.60;;
48871;SDS011;36154;51.674;7.824;2024-01-30T13:42:47;1.50;;;1.40;;
48871;SDS011;36154;51.674;7.824;2024-01-30T13:45:12;3.03;;;1.40;;
48871;SDS011;36154;51.674;7.824;2024-01-30T13:47:38;3.70;;;1.40;;
48871;SDS011;36154;51.674;7.824;2024-01-30T13:50:03;3.95;;;1.60;;
48871;SDS011;36154;51.674;7.824;2024-01-30T13:52:29;3.40;;;1.52;;
48871;SDS011;36154;51.674;7.824;2024-01-30T13:54:55;3.55;;;1.30;;
48871;SDS011;36154;51.674;7.824;2024-01-30T13:57:20;4.47;;;1.40;;
48871;SDS011;36154;51.674;7.824;2024-01-30T13:59:45;2.28;;;1.38;;
48871;SDS011;36154;51.674;7.824;2024-01-30T14:02:11;1.13;;;1.02;;
48871;SDS011;36154;51.674;7.824;2024-01-30T14:04:37;2.33;;;1.10;;
48871;SDS011;36154;51.674;7.824;2024-01-30T14:07:02;1.52;;;1.20;;
48871;SDS011;36154;51.674;7.824;2024-01-30T14:09:28;1.08;;;1.08;;
48871;SDS011;36154;51.674;7.824;2024-01-30T14:11:54;2.22;;;1.60;;
48871;SDS011;36154;51.674;7.824;2024-01-30T14:14:19;1.40;;;0.95;;
48871;SDS011;36154;51.674;7.824;2024-01-30T14:16:45;1.70;;;1.27;;
48871;SDS011;36154;51.674;7.824;2024-01-30T14:19:10;1.20;;;1.02;;
48871;SDS011;36154;51.674;7.824;2024-01-30T14:21:35;6.32;;;1.10;;
48871;SDS011;36154;51.674;7.824;2024-01-30T14:24:02;2.45;;;1.13;;
48871;SDS011;36154;51.674;7.824;2024-01-30T14:26:27;3.20;;;1.30;;
48871;SDS011;36154;51.674;7.824;2024-01-30T14:28:52;1.75;;;0.90;;
48871;SDS011;36154;51.674;7.824;2024-01-30T14:31:18;3.70;;;1.13;;
48871;SDS011;36154;51.674;7.824;2024-01-30T14:33:44;1.77;;;0.80;;
48871;SDS011;36154;51.674;7.824;2024-01-30T14:36:10;0.80;;;0.80;;
48871;SDS011;36154;51.674;7.824;2024-01-30T14:38:35;1.17;;;0.93;;
48871;SDS011;36154;51.674;7.824;2024-01-30T14:41:00;3.95;;;0.85;;